x

Canaveral 20 Nm East Of Cape Canaveral, Fl (41009) Weather Station

12:20pm - Fri 30th Jan 2015 All times are EST. -5 hours from GMT.

  • Wind
    16mph, 18mph gusts
  • Sea Temp 68°f
  • Air Temp 63°f
  • Sea Pressure 1021.3mb
  • Canaveral 20 Nm East Of Cape Canaveral, Fl
  • Canaveral 20 Nm East Of Cape Canaveral, Fl

More Historic Weather Station data

Upgrade to MSW Pro to gain access to the past 30 days of data for over 8000 Wavebouys and Weather Stations around the globe.

Join Pro

Comparision Forecast

View Surf forecast
   
Fri 01/30 12:20pm  -   -   -  16 18 mph 1021.3mb 68f 63f
11:50am 3ft 11s 6s 13 18 mph 1021.8mb 68f 63f
11:20am  -   -   -  13 16 mph 1022.3mb 68f 63f
10:50am 3ft 11s 5s 13 16 mph 1022.7mb 68f 62f
10:20am  -   -   -  13 16 mph 1022.8mb 68f 62f
9:50am 3.5ft 10s 6s 13 18 mph 1022.8mb 68f 62f
9:20am  -   -   -  16 18 mph 1022.9mb 68f 62f
8:50am 3.5ft 10s 5s 16 18 mph 1022.6mb 68f 62f
8:20am  -   -   -  16 22 mph 1022.5mb 68f 62f
7:50am 4ft 10s 5s 13 16 mph 1022.4mb 68f 62f
7:20am  -   -   -  13 18 mph 1022.3mb 68f 62f
6:50am 3.5ft 11s 5s 18 22 mph 1022.2mb 68f 63f
6:20am  -   -   -  16 20 mph 1021.9mb 68f 62f
5:50am 3.5ft 11s 5s 18 20 mph 1021.9mb 68f 62f
5:20am  -   -   -  16 18 mph 1021.8mb 68f 62f
4:50am 3.5ft 10s 6s 18 20 mph 1021.7mb 68f 63f
4:20am  -   -   -  16 18 mph 1021.3mb 68f 65f
3:50am 3.5ft 10s 7s 13 18 mph 1021.1mb 68f 65f
3:20am  -   -   -  13 16 mph 1021.4mb 68f 65f
2:50am 3.5ft 11s 7s 13 16 mph 1021.5mb 68f 65f
2:20am  -   -   -  11 13 mph 1021.8mb 68f 65f
1:50am 3.5ft 11s 7s 9 11 mph 1022.3mb 68f 65f
1:20am  -   -   -  7 9 mph 1022.7mb 68f 65f
12:50am 3.5ft 10s 7s 4 7 mph 1022.9mb 68f 65f
12:20am  -   -   -  4
mph
1023.3mb 68f 65f
Thu 01/29 11:50pm 3.5ft 9s 7s 4 7 mph 1023.6mb 69f 65f
11:20pm  -   -   -  4
mph
1023.7mb 69f 65f
10:50pm 3.5ft 11s 7s 7
mph
1024mb 69f 65f
10:20pm  -   -   -  7
mph
1024.3mb 69f 65f
9:50pm 4.5ft 10s 7s 9
mph
1024.6mb 69f 65f
9:20pm  -   -   -  9 11 mph 1024.6mb 69f 65f
8:50pm 3.5ft 10s 7s 2 4 mph 1024.5mb 69f 66f
8:20pm  -   -   -  2 4 mph 1024.3mb 69f 66f
7:50pm 4.5ft 10s 7s 2 7 mph 1024.4mb 69f 66f
7:20pm  -   -   -  4 7 mph 1024.2mb 69f 66f
6:50pm 4.5ft 9s 7s 2 4 mph 1024mb 69f 65f
6:20pm  -   -   -  4 7 mph 1023.9mb 69f 66f
5:50pm 4.5ft 11s 7s 4 7 mph 1024.1mb 69f 66f
5:20pm  -   -   -  4 9 mph 1024.2mb 69f 66f
4:50pm 4ft 11s  -  2 7 mph 1024.1mb 69f 66f
4:20pm  -   -   -  2 4 mph 1023.8mb 70f 66f
3:50pm 4ft 13s 6s 4 7 mph 1023.6mb 70f 65f
3:20pm  -   -   -  2 7 mph 1023.8mb 70f 65f
2:50pm 3.5ft 7s 6s 7 9 mph 1023.9mb 69f 65f
2:20pm  -   -   -  7 9 mph 1024.2mb 69f 64f
1:20pm  -   -   -  4 7 mph 1025mb 69f 64f
12:50pm 4.5ft 13s 6s 9 11 mph 1025.3mb 69f 64f
12:20pm  -   -   -  7 13 mph 1025.8mb 69f 64f
11:50am 4ft 11s 6s 7 9 mph 1026.2mb 69f 64f
11:20am  -   -   -  9 13 mph 1026.3mb 69f 64f
10:50am 4.5ft 8s 6s 11 18 mph 1026.4mb 69f 64f
10:20am  -   -   -  9 11 mph 1026.8mb 69f 64f
9:50am 4.5ft 12s 6s 9 13 mph 1026.6mb 69f 64f
9:20am  -   -   -  11 16 mph 1026.4mb 69f 64f
8:50am 5ft 8s 6s 13 18 mph 1026mb 69f 64f
8:20am  -   -   -  11 16 mph 1025.8mb 69f 63f
7:50am 5ft 8s 6s 13 16 mph 1025.4mb 69f 63f
7:20am  -   -   -  16 22 mph 1024.6mb 69f 63f
6:50am 5ft 8s 6s 18 22 mph 1024.4mb 69f 63f
6:20am  -   -   -  13 20 mph 1024.2mb 69f 63f
5:50am 5ft 13s 6s 13 16 mph 1023.9mb 69f 62f
5:20am  -   -   -  16 20 mph 1023.6mb 70f 62f
4:50am 5.5ft 8s 6s 16 22 mph 1023.5mb 70f 63f
4:20am  -   -   -  16 20 mph 1023.5mb 70f 63f
3:50am 5.5ft 13s 6s 13 18 mph 1023.4mb 70f 62f
3:20am  -   -   -  18 25 mph 1023.4mb 70f 62f
2:50am 5ft 8s 6s 18 25 mph 1023.8mb 70f 62f
2:20am  -   -   -  16 22 mph 1023.7mb 70f 62f
1:50am 5ft 8s 6s 18 22 mph 1023.7mb 70f 61f
1:20am  -   -   -  16 18 mph 1023.9mb 70f 61f
12:50am 5.5ft 13s 6s 18 20 mph 1023.9mb 70f 61f
12:20am  -   -   -  16 20 mph 1024mb 70f 60f
Wed 01/28 11:50pm 5ft 8s 6s 18 22 mph 1024.1mb 70f 60f
11:20pm  -   -   -  18 22 mph 1024mb 70f 60f
10:50pm 5ft 8s 5s 20 25 mph 1023.6mb 70f 60f
10:20pm  -   -   -  20 22 mph 1023.6mb 70f 60f
9:50pm 5.5ft 13s 5s 20 27 mph 1023.7mb 70f 60f
9:20pm  -   -   -  20 22 mph 1023.7mb 70f 60f
8:50pm 5.5ft 14s 5s 22 29 mph 1023.4mb 70f 60f
8:20pm  -   -   -  22 29 mph 1023.3mb 70f 60f
7:50pm 5.5ft 14s 6s 22 27 mph 1023.2mb 70f 60f
7:20pm  -   -   -  20 25 mph 1023.1mb 70f 59f
6:50pm 5ft 14s 5s 20 25 mph 1022.9mb 70f 59f
6:20pm  -   -   -  20 25 mph 1022.7mb 70f 59f
5:50pm 5ft 14s 6s 20 27 mph 1022.5mb 70f 59f
5:20pm  -   -   -  20 27 mph 1022.1mb 70f 59f
4:50pm 5ft 8s 5s 20 25 mph 1021.8mb 70f 59f
4:20pm  -   -   -  20 27 mph 1021.6mb 70f 59f
3:50pm 5ft 15s 6s 20 25 mph 1021.1mb 70f 60f
3:20pm  -   -   -  18 25 mph 1021mb 70f 59f
2:50pm 5ft 14s 6s 18 25 mph 1021mb 70f 59f
2:20pm  -   -   -  20 25 mph 1020.7mb 70f 58f
1:50pm 5ft 14s 6s 18 25 mph 1020.8mb 70f 58f
1:20pm  -   -   -  18 22 mph 1021mb 70f 58f
12:50pm 5ft 7s 5s 20 25 mph 1021.3mb 70f 58f
12:20pm  -   -   -  18 22 mph 1021.6mb 70f 57f
11:50am 5ft 8s 5s 18 22 mph 1022mb 70f 57f
11:20am  -   -   -  18 22 mph 1022.3mb 70f 57f
10:50am 5.5ft 8s 6s 20 29 mph 1022.3mb 70f 57f
10:20am  -   -   -  20 27 mph 1022.1mb 70f 56f
9:50am 5.5ft 8s 6s 20 25 mph 1021.7mb 69f 57f
9:20am  -   -   -  20 25 mph 1021.2mb 69f 57f
8:50am 5.5ft 7s 5s 22 27 mph 1020.8mb 69f 57f
8:20am  -   -   -  20 27 mph 1020.4mb 69f 57f
7:50am 6ft 6s 5s 22 29 mph 1019.8mb 69f 57f
7:20am  -   -   -  22 27 mph 1019.3mb 69f 57f
6:50am 7ft 8s 6s 25 31 mph 1019mb 69f 58f
6:20am  -   -   -  25 31 mph 1018.5mb 70f 57f
5:50am 6.5ft 8s 6s 22 31 mph 1018mb 70f 58f
5:20am  -   -   -  25 31 mph 1017.7mb 70f 58f
4:50am 6ft 8s 5s 25 31 mph 1017.7mb 70f 58f
4:20am  -   -   -  25 29 mph 1017.4mb 70f 58f
3:20am  -   -   -  22 27 mph 1017mb 71f 59f
2:50am 7ft 8s 6s 22 27 mph 1016.9mb 71f 59f
2:20am  -   -   -  25 31 mph 1016.7mb 71f 60f
1:50am 6.5ft 8s 6s 22 31 mph 1016.7mb 71f 60f
1:20am  -   -   -  22 34 mph 1016.5mb 70f 60f
12:50am 6ft 8s 6s 20 29 mph 1016.5mb 70f 61f
12:20am  -   -   -  22 29 mph 1016.3mb 70f 61f
Tue 01/27 11:50pm 6ft 9s 5s 22 29 mph 1016.1mb 70f 61f
11:20pm  -   -   -  25 31 mph 1015.8mb 70f 62f
10:20pm  -   -   -  25 29 mph 1015.2mb 70f 63f
9:50pm 5ft 10s 5s 27 31 mph 1015mb 70f 63f
9:20pm  -   -   -  25 29 mph 1014.8mb 70f 63f
8:50pm 5.5ft 10s 5s 25 31 mph 1014.8mb 70f 64f
8:20pm  -   -   -  25 29 mph 1014.4mb 70f 64f
7:50pm 5.5ft 9s 5s 25 29 mph 1014.1mb 70f 64f
7:20pm  -   -   -  22 29 mph 1014mb 70f 65f
6:50pm 5.5ft 10s 5s 22 25 mph 1013.6mb 70f 65f
6:20pm  -   -   -  22 29 mph 1012.9mb 70f 65f
5:50pm 5.5ft 4s 5s 27 31 mph 1012.5mb 70f 65f
5:20pm  -   -   -  29 34 mph 1012.1mb 70f 66f
4:50pm 5ft 10s 5s 25 31 mph 1011.9mb 70f 66f
4:20pm  -   -   -  22 27 mph 1012.1mb 70f 65f
3:50pm 5ft 10s 5s 20 25 mph 1012.2mb 70f 63f
3:20pm  -   -   -  20 27 mph 1012.1mb 70f 62f
2:50pm 5ft 6s 5s 18 25 mph 1012.6mb 70f 60f
2:20pm  -   -   -  16 25 mph 1013.2mb 70f 59f
1:50pm 5ft 6s 5s 20 27 mph 1013.6mb 70f 58f
1:20pm  -   -   -  20 22 mph 1014.1mb 69f 57f
12:50pm 5.5ft 7s 5s 20 25 mph 1014.6mb 69f 56f
12:20pm  -   -   -  25 29 mph 1015.1mb 69f 55f
11:50am 5.5ft 7s 5s 25 31 mph 1015.7mb 69f 54f
11:20am  -   -   -  25 29 mph 1016.1mb 69f 55f
10:50am 6ft 8s 5s 25 29 mph 1016.2mb 69f 54f
10:20am  -   -   -  22 29 mph 1016.3mb 69f 53f
9:50am 6.5ft 6s 6s 22 27 mph 1016.3mb 69f 53f
9:20am  -   -   -  22 29 mph 1016.2mb 69f 52f
8:50am 6.5ft 6s 5s 22 29 mph 1016.1mb 69f 52f
8:20am  -   -   -  25 29 mph 1015.7mb 69f 52f
7:50am 6ft 7s 5s 25 31 mph 1015.3mb 69f 53f
7:20am  -   -   -  25 29 mph 1015.3mb 69f 53f
6:50am 6ft 6s 5s 25 34 mph 1015.1mb 69f 52f
6:20am  -   -   -  25 31 mph 1014.6mb 69f 52f
5:50am 6ft 8s 5s 22 27 mph 1014.2mb 69f 52f
5:20am  -   -   -  25 29 mph 1013.8mb 69f 52f
4:50am 6ft 8s 5s 25 29 mph 1013.5mb 69f 53f
4:20am  -   -   -  25 34 mph 1013.2mb 69f 54f
3:50am 6ft 7s 5s 25 31 mph 1013mb 69f 54f
3:20am  -   -   -  25 29 mph 1013mb 69f 54f
2:50am 6ft 6s 5s 25 29 mph 1012.8mb 69f 54f
2:20am  -   -   -  25 31 mph 1012.8mb 69f 54f
1:50am 6ft 6s 5s 27 34 mph 1012.8mb 70f 55f
1:20am  -   -   -  27 34 mph 1012.5mb 70f 56f
12:50am 6ft 6s 5s 27 34 mph 1012.5mb 70f 56f
12:20am  -   -   -  29 34 mph 1012.7mb 70f 56f
Mon 01/26 11:50pm 5.5ft 7s 5s 29 36 mph 1012.5mb 70f 57f
11:20pm  -   -   -  29 36 mph 1012.5mb 70f 57f
10:50pm 5ft 7s 5s 29 36 mph 1012.6mb 70f 58f
10:20pm  -   -   -  27 36 mph 1012.4mb 70f 58f
9:50pm 5ft 6s 5s 25 31 mph 1012mb 70f 58f
9:20pm  -   -   -  25 31 mph 1011.7mb 70f 59f
8:50pm 6ft 6s 5s 27 31 mph 1011.8mb 70f 60f
8:20pm  -   -   -  27 34 mph 1011.7mb 70f 60f
7:50pm 6ft 6s 5s 29 34 mph 1011.5mb 70f 60f
7:20pm  -   -   -  27 34 mph 1011.1mb 70f 61f
6:50pm 6ft 6s 5s 29 36 mph 1010.8mb 70f 62f
6:20pm  -   -   -  27 36 mph 1010.2mb 70f 63f